createdAt,value
2022-10-23T00:01:27.436Z,11.05
2022-10-23T00:03:58.139Z,11.11
2022-10-23T00:06:26.693Z,11.06
2022-10-23T00:08:55.268Z,11.27
2022-10-23T00:11:26.938Z,11.30
2022-10-23T00:13:57.276Z,11.34
2022-10-23T00:16:25.113Z,11.30
2022-10-23T00:18:52.959Z,11.31
2022-10-23T00:21:21.289Z,11.25
2022-10-23T00:23:49.172Z,11.10
2022-10-23T00:26:17.477Z,11.07
2022-10-23T00:28:48.296Z,11.18
2022-10-23T00:31:16.375Z,11.28
2022-10-23T00:33:44.960Z,11.31
2022-10-23T00:36:15.660Z,11.34
2022-10-23T00:38:43.495Z,11.37
2022-10-23T00:41:17.166Z,11.35
2022-10-23T00:44:01.955Z,11.36
2022-10-23T00:46:29.826Z,11.43
2022-10-23T00:48:58.860Z,11.43
2022-10-23T00:51:30.616Z,11.48
2022-10-23T00:54:22.833Z,11.62
2022-10-23T00:56:50.096Z,11.80
2022-10-23T00:59:19.431Z,11.58
2022-10-23T01:01:48.361Z,11.11
2022-10-23T01:04:16.467Z,10.67
2022-10-23T01:06:52.506Z,10.33
2022-10-23T01:09:28.196Z,9.97
2022-10-23T01:12:02.414Z,10.08
2022-10-23T01:14:43.561Z,10.00
2022-10-23T01:17:19.327Z,9.98
2022-10-23T01:20:02.497Z,9.95
2022-10-23T01:22:49.140Z,9.76
2022-10-23T01:25:29.763Z,9.95
2022-10-23T01:28:03.895Z,9.85
2022-10-23T01:30:34.802Z,9.70
2022-10-23T01:33:07.189Z,9.79
2022-10-23T01:35:38.185Z,9.99
2022-10-23T01:38:13.133Z,10.06
2022-10-23T01:40:48.737Z,10.06
2022-10-23T01:43:21.407Z,9.96
2022-10-23T01:45:52.781Z,9.85
2022-10-23T01:48:24.799Z,9.86
2022-10-23T01:50:54.911Z,9.81
2022-10-23T01:53:24.076Z,9.80
2022-10-23T01:55:53.099Z,10.08
2022-10-23T01:58:24.093Z,10.19
2022-10-23T02:00:53.751Z,10.38
2022-10-23T02:03:23.212Z,10.49
2022-10-23T02:05:51.213Z,10.64
2022-10-23T02:08:19.191Z,10.74
2022-10-23T02:10:52.871Z,10.81
2022-10-23T02:13:29.515Z,10.91
2022-10-23T02:16:06.768Z,11.00
2022-10-23T02:18:43.973Z,11.00
2022-10-23T02:21:15.311Z,11.11
2022-10-23T02:23:52.527Z,11.17
2022-10-23T02:26:27.188Z,11.20
2022-10-23T02:29:01.360Z,11.24
2022-10-23T02:31:29.240Z,11.25
2022-10-23T02:33:57.142Z,11.21
2022-10-23T02:36:24.976Z,11.21
2022-10-23T02:38:52.813Z,11.23
2022-10-23T02:41:37.355Z,11.26
2022-10-23T02:44:19.436Z,11.26
2022-10-23T02:46:54.351Z,11.26
2022-10-23T02:49:27.903Z,11.25
2022-10-23T02:52:05.380Z,11.31
2022-10-23T02:54:44.370Z,11.40
2022-10-23T02:57:21.315Z,11.44
2022-10-23T02:59:56.790Z,11.32
2022-10-23T03:02:30.062Z,11.42
2022-10-23T03:05:01.629Z,11.38
2022-10-23T03:07:29.807Z,11.40
2022-10-23T03:09:57.621Z,11.28
2022-10-23T03:12:25.529Z,11.10
2022-10-23T03:14:54.820Z,11.09
2022-10-23T03:17:22.651Z,11.14
2022-10-23T03:19:50.451Z,10.96
2022-10-23T03:22:18.769Z,10.85
2022-10-23T03:24:46.819Z,10.77
2022-10-23T03:27:14.926Z,10.80
2022-10-23T03:29:43.000Z,10.81
2022-10-23T03:32:12.253Z,10.81
2022-10-23T03:34:40.080Z,10.91
2022-10-23T03:37:07.912Z,11.04
2022-10-23T03:39:35.847Z,11.15
2022-10-23T03:42:03.665Z,11.22
2022-10-23T03:44:32.205Z,11.29
2022-10-23T03:47:00.031Z,11.41
2022-10-23T03:49:29.506Z,11.48
2022-10-23T03:51:57.347Z,11.55
2022-10-23T03:54:26.392Z,11.57
2022-10-23T03:56:56.639Z,11.46
2022-10-23T03:59:25.514Z,11.70
2022-10-23T04:01:53.486Z,11.68
2022-10-23T04:04:21.503Z,11.62
2022-10-23T04:06:50.749Z,11.54
2022-10-23T04:09:18.736Z,11.56
2022-10-23T04:11:46.599Z,11.62
2022-10-23T04:14:15.040Z,11.47
2022-10-23T04:16:43.113Z,11.68
2022-10-23T04:19:10.984Z,11.55
2022-10-23T04:21:38.937Z,11.47
2022-10-23T04:24:08.699Z,11.46
2022-10-23T04:26:36.613Z,11.52
2022-10-23T04:29:04.770Z,11.41
2022-10-23T04:31:32.640Z,11.31
2022-10-23T04:34:00.655Z,11.43
2022-10-23T04:36:28.613Z,11.34
2022-10-23T04:38:56.428Z,11.14
2022-10-23T04:41:25.739Z,11.09
2022-10-23T04:43:53.588Z,10.95
2022-10-23T04:46:21.425Z,10.89
2022-10-23T04:48:49.325Z,10.89
2022-10-23T04:51:17.337Z,10.79
2022-10-23T04:53:45.185Z,10.72
2022-10-23T04:56:14.913Z,10.78
2022-10-23T04:58:44.118Z,10.78
2022-10-23T05:01:12.312Z,10.94
2022-10-23T05:03:40.351Z,11.16
2022-10-23T05:06:08.440Z,11.42
2022-10-23T05:08:36.901Z,11.69
2022-10-23T05:11:05.248Z,11.95
2022-10-23T05:13:33.172Z,12.32
2022-10-23T05:16:02.415Z,12.34
2022-10-23T05:18:34.216Z,12.62
2022-10-23T05:21:05.662Z,13.06
2022-10-23T05:23:37.061Z,13.21
2022-10-23T05:26:05.848Z,13.42
2022-10-23T05:28:33.813Z,13.68
2022-10-23T05:31:06.223Z,14.09
2022-10-23T05:33:34.516Z,14.46
2022-10-23T05:36:02.736Z,14.72
2022-10-23T05:38:34.849Z,15.05
2022-10-23T05:41:03.190Z,15.15
2022-10-23T05:43:31.487Z,15.25
2022-10-23T05:45:59.562Z,14.79
2022-10-23T05:48:34.792Z,14.49
2022-10-23T05:51:06.703Z,14.42
2022-10-23T05:53:36.252Z,14.78
2022-10-23T05:56:07.710Z,14.83
2022-10-23T05:58:37.360Z,14.93
2022-10-23T06:01:11.243Z,15.27
2022-10-23T06:03:42.474Z,15.34
2022-10-23T06:06:11.999Z,15.01
2022-10-23T06:08:41.994Z,14.77
2022-10-23T06:11:13.569Z,14.63
2022-10-23T06:13:44.762Z,14.62
2022-10-23T06:16:16.107Z,14.65
2022-10-23T06:18:46.020Z,14.61
2022-10-23T06:21:14.662Z,14.53
2022-10-23T06:23:44.050Z,14.56
2022-10-23T06:26:14.624Z,14.68
2022-10-23T06:28:42.847Z,15.18
2022-10-23T06:31:12.908Z,15.42
2022-10-23T06:33:41.449Z,15.43
2022-10-23T06:36:11.348Z,15.38
2022-10-23T06:38:40.639Z,15.04
2022-10-23T06:41:13.650Z,15.35
2022-10-23T06:43:41.508Z,15.63
2022-10-23T06:46:09.980Z,16.63
2022-10-23T06:48:37.825Z,17.86
2022-10-23T06:51:08.026Z,18.78
2022-10-23T06:53:37.777Z,19.60
2022-10-23T06:56:07.361Z,20.20
2022-10-23T06:58:35.478Z,20.06
2022-10-23T07:01:05.053Z,20.15
2022-10-23T07:03:34.305Z,20.02
2022-10-23T07:06:02.403Z,20.39
2022-10-23T07:08:30.477Z,20.65
2022-10-23T07:11:04.751Z,20.44
2022-10-23T07:13:32.634Z,20.21
2022-10-23T07:16:00.489Z,20.31
2022-10-23T07:18:28.401Z,20.17
2022-10-23T07:20:59.581Z,20.75
2022-10-23T07:23:27.540Z,20.31
2022-10-23T07:25:55.414Z,20.02
2022-10-23T07:28:24.774Z,20.17
2022-10-23T07:30:58.064Z,20.31
2022-10-23T07:33:25.980Z,20.10
2022-10-23T07:35:54.330Z,20.48
2022-10-23T07:38:22.256Z,20.39
2022-10-23T07:40:50.207Z,20.94
2022-10-23T07:43:18.709Z,21.01
2022-10-23T07:45:49.756Z,21.44
2022-10-23T07:48:18.199Z,21.03
2022-10-23T07:50:46.431Z,21.16
2022-10-23T07:53:18.896Z,21.20
2022-10-23T07:55:53.619Z,21.22
2022-10-23T07:58:21.495Z,21.04
2022-10-23T08:00:56.606Z,21.26
2022-10-23T08:03:24.502Z,21.40
2022-10-23T08:05:53.637Z,21.22
2022-10-23T08:08:23.798Z,21.16
2022-10-23T08:10:53.347Z,21.25
2022-10-23T08:13:21.816Z,21.08
2022-10-23T08:15:52.538Z,21.18
2022-10-23T08:18:20.747Z,21.15
2022-10-23T08:20:51.226Z,21.63
2022-10-23T08:23:20.323Z,21.53
2022-10-23T08:25:48.320Z,21.57
2022-10-23T08:28:17.505Z,21.65
2022-10-23T08:30:48.766Z,21.65
2022-10-23T08:33:18.838Z,21.56
2022-10-23T08:35:48.613Z,21.41
2022-10-23T08:38:16.491Z,21.65
2022-10-23T08:40:46.878Z,21.74
2022-10-23T08:43:21.108Z,21.66
2022-10-23T08:45:53.979Z,21.90
2022-10-23T08:48:27.178Z,21.63
2022-10-23T08:50:59.379Z,21.44
2022-10-23T08:53:32.742Z,21.60
2022-10-23T08:56:04.155Z,21.81
2022-10-23T08:58:40.509Z,21.25
2022-10-23T09:01:34.093Z,21.78
2022-10-23T09:04:04.768Z,22.13
2022-10-23T09:06:40.464Z,21.81
2022-10-23T09:09:23.881Z,22.14
2022-10-23T09:12:00.805Z,22.05
2022-10-23T09:14:54.872Z,22.27
2022-10-23T09:17:26.999Z,22.16
2022-10-23T09:20:02.667Z,22.37
2022-10-23T09:22:30.642Z,22.52
2022-10-23T09:24:58.483Z,22.31
2022-10-23T09:27:26.352Z,22.54
2022-10-23T09:29:56.406Z,22.56
2022-10-23T09:32:34.680Z,22.72
2022-10-23T09:35:04.035Z,22.94
2022-10-23T09:37:35.861Z,22.88
2022-10-23T09:40:19.311Z,22.99
2022-10-23T09:42:56.863Z,23.23
2022-10-23T09:45:31.247Z,23.11
2022-10-23T09:48:13.442Z,22.73
2022-10-23T09:50:51.208Z,22.62
2022-10-23T09:53:27.911Z,22.78
2022-10-23T09:55:57.992Z,23.13
2022-10-23T09:58:33.568Z,23.63
2022-10-23T10:01:01.849Z,23.38
2022-10-23T10:03:29.844Z,23.51
2022-10-23T10:06:01.552Z,23.47
2022-10-23T10:08:45.338Z,23.37
2022-10-23T10:11:20.656Z,23.65
2022-10-23T10:14:02.467Z,23.28
2022-10-23T10:16:42.940Z,23.49
2022-10-23T10:19:24.601Z,24.04
2022-10-23T10:22:00.823Z,24.53
2022-10-23T10:24:37.118Z,24.55
2022-10-23T10:27:19.485Z,24.65
2022-10-23T10:30:03.716Z,24.57
2022-10-23T10:32:41.039Z,24.39
2022-10-23T10:35:23.609Z,24.48
2022-10-23T10:38:05.763Z,24.49
2022-10-23T10:40:37.287Z,24.71
2022-10-23T10:43:29.384Z,24.73
2022-10-23T10:46:04.267Z,24.46
2022-10-23T10:48:50.547Z,24.28
2022-10-23T10:51:27.408Z,24.31
2022-10-23T10:54:11.320Z,24.28
2022-10-23T10:56:42.924Z,24.17
2022-10-23T10:59:17.757Z,24.46
2022-10-23T11:01:52.300Z,24.32
2022-10-23T11:04:31.891Z,24.36
2022-10-23T11:07:02.689Z,24.37
2022-10-23T11:09:32.956Z,24.31
2022-10-23T11:12:00.937Z,23.89
2022-10-23T11:14:30.927Z,24.29
2022-10-23T11:17:04.413Z,24.24
2022-10-23T11:19:38.031Z,24.37
2022-10-23T11:22:12.319Z,24.62
2022-10-23T11:25:15.665Z,24.19
2022-10-23T11:28:03.321Z,23.82
2022-10-23T11:30:41.894Z,23.94
2022-10-23T11:33:46.707Z,24.25
2022-10-23T11:36:18.771Z,24.59
2022-10-23T11:38:48.947Z,24.78
2022-10-23T11:41:26.695Z,24.67
2022-10-23T11:44:01.404Z,24.67
2022-10-23T11:46:35.181Z,24.27
2022-10-23T11:49:06.053Z,24.25
2022-10-23T11:51:35.707Z,24.30
2022-10-23T11:54:24.636Z,24.46
2022-10-23T11:56:56.366Z,24.16
2022-10-23T11:59:28.904Z,23.95
2022-10-23T12:01:58.775Z,23.98
2022-10-23T12:04:31.816Z,23.90
2022-10-23T12:07:02.824Z,23.85
2022-10-23T12:09:42.603Z,23.80
2022-10-23T12:12:29.470Z,23.93
2022-10-23T12:15:10.141Z,23.78
2022-10-23T12:17:40.216Z,23.42
2022-10-23T12:20:23.683Z,23.46
2022-10-23T12:23:03.083Z,23.55
2022-10-23T12:25:40.271Z,23.40
2022-10-23T12:28:26.455Z,23.29
2022-10-23T12:31:04.894Z,23.59
2022-10-23T12:33:38.945Z,23.83
2022-10-23T12:36:25.873Z,23.64
2022-10-23T12:38:54.778Z,22.99
2022-10-23T12:41:26.467Z,23.39
2022-10-23T12:43:59.386Z,23.52
2022-10-23T12:46:34.986Z,23.45
2022-10-23T12:49:05.073Z,23.65
2022-10-23T12:51:34.764Z,23.68
2022-10-23T12:54:03.513Z,23.82
2022-10-23T12:56:36.759Z,23.68
2022-10-23T12:59:14.707Z,23.53
2022-10-23T13:01:43.457Z,23.41
2022-10-23T13:04:23.073Z,23.61
2022-10-23T13:06:53.094Z,23.70
2022-10-23T13:09:25.994Z,23.46
2022-10-23T13:11:54.416Z,23.30
2022-10-23T13:14:38.207Z,23.14
2022-10-23T13:17:10.218Z,23.04
2022-10-23T13:19:38.833Z,22.90
2022-10-23T13:22:19.138Z,22.78
2022-10-23T13:24:47.307Z,22.68
2022-10-23T13:27:26.924Z,22.60
2022-10-23T13:29:56.173Z,22.47
2022-10-23T13:32:25.685Z,22.55
2022-10-23T13:35:04.137Z,22.39
2022-10-23T13:37:38.406Z,22.32
2022-10-23T13:40:10.177Z,22.43
2022-10-23T13:42:38.009Z,22.31
2022-10-23T13:45:17.225Z,22.06
2022-10-23T13:47:45.468Z,22.03
2022-10-23T13:50:14.926Z,21.78
2022-10-23T13:52:42.867Z,21.74
2022-10-23T13:55:21.631Z,21.68
2022-10-23T13:57:49.504Z,21.46
2022-10-23T14:00:19.907Z,21.48
2022-10-23T14:02:47.859Z,21.46
2022-10-23T14:05:15.770Z,21.08
2022-10-23T14:07:43.839Z,21.34
2022-10-23T14:10:11.830Z,21.25
2022-10-23T14:12:41.719Z,21.18
2022-10-23T14:15:11.341Z,21.23
2022-10-23T14:17:40.581Z,21.21
2022-10-23T14:20:09.763Z,21.02
2022-10-23T14:22:37.637Z,21.14
2022-10-23T14:25:06.237Z,21.05
2022-10-23T14:27:34.160Z,21.00
2022-10-23T14:30:02.018Z,20.99
2022-10-23T14:32:30.867Z,20.85
2022-10-23T14:35:03.738Z,20.81
2022-10-23T14:37:32.111Z,20.72
2022-10-23T14:40:00.512Z,20.69
2022-10-23T14:42:34.069Z,20.61
2022-10-23T14:45:02.793Z,20.56
2022-10-23T14:47:32.959Z,20.49
2022-10-23T14:50:02.199Z,20.48
2022-10-23T14:52:30.039Z,20.41
2022-10-23T14:54:58.038Z,20.32
2022-10-23T14:57:25.914Z,20.34
2022-10-23T14:59:53.767Z,20.27
2022-10-23T15:02:21.620Z,20.19
2022-10-23T15:04:49.459Z,20.05
2022-10-23T15:07:18.712Z,20.05
2022-10-23T15:09:46.561Z,19.96
2022-10-23T15:12:14.600Z,19.92
2022-10-23T15:14:42.546Z,19.80
2022-10-23T15:17:15.456Z,19.74
2022-10-23T15:19:43.780Z,19.52
2022-10-23T15:22:11.632Z,19.61
2022-10-23T15:24:40.948Z,19.48
2022-10-23T15:29:37.610Z,19.36
2022-10-23T15:32:07.739Z,19.34
2022-10-23T15:34:36.317Z,19.28
2022-10-23T15:37:05.168Z,19.23
2022-10-23T15:39:35.441Z,19.21
2022-10-23T15:42:06.764Z,18.88
2022-10-23T15:44:35.198Z,19.11
2022-10-23T15:47:03.268Z,19.04
2022-10-23T15:49:31.359Z,18.93
2022-10-23T15:51:59.372Z,18.78
2022-10-23T15:54:30.520Z,18.66
2022-10-23T15:57:00.893Z,18.60
2022-10-23T15:59:31.502Z,18.29
2022-10-23T16:01:59.533Z,18.57
2022-10-23T16:04:28.533Z,18.55
2022-10-23T16:06:56.402Z,18.58
2022-10-23T16:09:24.237Z,18.49
2022-10-23T16:11:52.100Z,18.43
2022-10-23T16:14:20.066Z,18.41
2022-10-23T16:16:49.364Z,18.42
2022-10-23T16:19:17.307Z,18.34
2022-10-23T16:21:45.171Z,18.35
2022-10-23T16:24:13.048Z,18.34
2022-10-23T16:26:41.416Z,18.27
2022-10-23T16:29:10.582Z,18.28
2022-10-23T16:31:38.478Z,18.26
2022-10-23T16:34:08.251Z,18.16
2022-10-23T16:36:39.042Z,18.13
2022-10-23T16:39:07.956Z,18.10
2022-10-23T16:41:35.891Z,18.05
2022-10-23T16:44:03.834Z,17.86
2022-10-23T16:46:32.041Z,17.70
2022-10-23T16:48:59.920Z,17.55
2022-10-23T16:51:32.815Z,17.62
2022-10-23T16:54:00.679Z,17.61
2022-10-23T16:56:29.977Z,17.58
2022-10-23T17:01:32.983Z,17.53
2022-10-23T17:04:01.185Z,17.48
2022-10-23T17:06:32.251Z,17.57
2022-10-23T17:09:01.843Z,17.29
2022-10-23T17:11:31.514Z,17.47
2022-10-23T17:14:01.228Z,17.48
2022-10-23T17:16:31.432Z,17.50
2022-10-23T17:18:59.599Z,17.54
2022-10-23T17:21:27.496Z,17.50
2022-10-23T17:23:56.822Z,17.42
2022-10-23T17:26:24.736Z,17.37
2022-10-23T17:28:52.609Z,17.35
2022-10-23T17:31:22.813Z,17.26
2022-10-23T17:33:52.966Z,17.26
2022-10-23T17:36:22.634Z,17.12
2022-10-23T17:38:50.819Z,17.21
2022-10-23T17:41:22.525Z,17.21
2022-10-23T17:43:50.868Z,17.18
2022-10-23T17:46:19.954Z,17.09
2022-10-23T17:48:47.807Z,17.04
2022-10-23T17:51:17.314Z,16.97
2022-10-23T17:53:47.248Z,16.97
2022-10-23T17:56:19.081Z,16.96
2022-10-23T17:58:48.898Z,16.89
2022-10-23T18:01:20.093Z,16.01
2022-10-23T18:03:48.354Z,16.79
2022-10-23T18:06:19.283Z,16.78
2022-10-23T18:08:47.899Z,16.70
2022-10-23T18:11:16.997Z,16.64
2022-10-23T18:13:45.293Z,16.25
2022-10-23T18:16:15.431Z,16.59
2022-10-23T18:18:45.065Z,16.62
2022-10-23T18:21:12.894Z,16.61
2022-10-23T18:23:40.756Z,16.26
2022-10-23T18:26:15.984Z,16.50
2022-10-23T18:28:44.667Z,16.47
2022-10-23T18:31:14.649Z,16.49
2022-10-23T18:33:42.873Z,16.51
2022-10-23T18:36:15.667Z,16.48
2022-10-23T18:38:43.670Z,16.35
2022-10-23T18:41:11.820Z,16.18
2022-10-23T18:43:43.677Z,15.83
2022-10-23T18:46:12.003Z,15.59
2022-10-23T18:48:41.645Z,15.44
2022-10-23T18:51:15.788Z,15.39
2022-10-23T18:53:46.737Z,15.06
2022-10-23T18:56:15.466Z,15.30
2022-10-23T18:58:43.366Z,15.22
2022-10-23T19:01:11.253Z,15.11
2022-10-23T19:03:39.160Z,15.03
2022-10-23T19:06:09.573Z,14.96
2022-10-23T19:08:38.445Z,14.68
2022-10-23T19:11:07.424Z,15.00
2022-10-23T19:13:39.147Z,15.07
2022-10-23T19:16:09.886Z,15.05
2022-10-23T19:18:39.350Z,15.03
2022-10-23T19:21:08.772Z,15.04
2022-10-23T19:23:37.899Z,15.02
2022-10-23T19:26:08.856Z,15.03
2022-10-23T19:28:38.020Z,15.02
2022-10-23T19:31:07.624Z,15.03
2022-10-23T19:33:36.176Z,15.06
2022-10-23T19:36:05.317Z,15.00
2022-10-23T19:38:35.320Z,14.89
2022-10-23T19:41:03.890Z,14.79
2022-10-23T19:43:31.771Z,14.51
2022-10-23T19:46:05.170Z,14.36
2022-10-23T19:48:35.867Z,14.31
2022-10-23T19:51:03.687Z,14.24
2022-10-23T19:53:31.496Z,14.22
2022-10-23T19:56:05.297Z,14.24
2022-10-23T19:58:33.167Z,14.14
2022-10-23T20:01:08.328Z,14.08
2022-10-23T20:03:36.249Z,14.13
2022-10-23T20:06:04.135Z,14.16
2022-10-23T20:08:34.992Z,14.18
2022-10-23T20:11:04.840Z,14.20
2022-10-23T20:13:32.691Z,14.13
2022-10-23T20:16:00.629Z,14.01
2022-10-23T20:18:28.696Z,13.86
2022-10-23T20:20:56.543Z,13.69
2022-10-23T20:23:25.287Z,13.67
2022-10-23T20:25:53.111Z,13.73
2022-10-23T20:28:22.327Z,13.79
2022-10-23T20:30:50.164Z,13.79
2022-10-23T20:33:18.009Z,13.85
2022-10-23T20:35:45.897Z,13.90
2022-10-23T20:38:13.803Z,13.90
2022-10-23T20:40:41.625Z,13.88
2022-10-23T20:43:09.487Z,13.80
2022-10-23T20:45:38.684Z,13.84
2022-10-23T20:48:07.297Z,13.79
2022-10-23T20:50:35.950Z,13.73
2022-10-23T20:53:03.782Z,13.52
2022-10-23T20:55:31.676Z,13.80
2022-10-23T20:57:59.544Z,13.79
2022-10-23T21:00:27.430Z,13.83
2022-10-23T21:02:56.913Z,13.77
2022-10-23T21:05:24.932Z,13.67
2022-10-23T21:07:52.756Z,13.63
2022-10-23T21:10:20.639Z,13.59
2022-10-23T21:12:48.440Z,13.51
2022-10-23T21:15:16.299Z,13.41
2022-10-23T21:17:44.103Z,13.00
2022-10-23T21:20:13.443Z,13.01
2022-10-23T21:22:41.495Z,12.89
2022-10-23T21:25:10.176Z,12.83
2022-10-23T21:27:37.996Z,12.77
2022-10-23T21:30:06.920Z,12.73
2022-10-23T21:32:34.771Z,12.78
2022-10-23T21:35:02.713Z,12.73
2022-10-23T21:37:31.918Z,12.62
2022-10-23T21:39:59.764Z,12.72
2022-10-23T21:45:00.598Z,12.70
2022-10-23T21:47:28.431Z,12.66
2022-10-23T21:49:56.307Z,12.73
2022-10-23T21:52:24.119Z,12.71
2022-10-23T21:54:54.698Z,12.65
2022-10-23T21:57:22.585Z,12.63
2022-10-23T21:59:50.556Z,12.66
2022-10-23T22:02:18.852Z,12.61
2022-10-23T22:04:46.739Z,12.53
2022-10-23T22:07:15.227Z,12.53
2022-10-23T22:09:43.926Z,12.51
2022-10-23T22:12:13.716Z,12.19
2022-10-23T22:14:42.507Z,12.26
2022-10-23T22:17:10.339Z,11.47
2022-10-23T22:19:38.225Z,12.21
2022-10-23T22:22:06.167Z,12.17
2022-10-23T22:24:34.000Z,12.20
2022-10-23T22:27:01.859Z,12.09
2022-10-23T22:29:31.199Z,12.14
2022-10-23T22:31:59.823Z,12.07
2022-10-23T22:37:18.200Z,12.00
2022-10-23T22:39:46.044Z,11.92
2022-10-23T22:42:13.884Z,11.84
2022-10-23T22:44:43.096Z,11.71
2022-10-23T22:47:10.931Z,11.67
2022-10-23T22:49:39.417Z,11.72
2022-10-23T22:52:07.270Z,11.70
2022-10-23T22:54:35.340Z,11.80
2022-10-23T22:57:03.198Z,11.80
2022-10-23T22:59:31.028Z,11.90
2022-10-23T23:02:00.291Z,11.99
2022-10-23T23:04:43.323Z,12.02
2022-10-23T23:07:12.955Z,11.79
2022-10-23T23:09:42.296Z,11.74
2022-10-23T23:12:12.396Z,11.80
2022-10-23T23:14:41.021Z,11.86
2022-10-23T23:17:10.941Z,11.89
2022-10-23T23:19:39.303Z,11.88
2022-10-23T23:22:07.439Z,11.88
2022-10-23T23:24:35.343Z,11.84
2022-10-23T23:27:03.199Z,11.76
2022-10-23T23:29:31.021Z,11.96
2022-10-23T23:31:59.408Z,11.91
2022-10-23T23:34:29.853Z,11.51
2022-10-23T23:36:57.709Z,11.71
2022-10-23T23:39:26.097Z,11.62
2022-10-23T23:41:53.958Z,11.57
2022-10-23T23:44:21.946Z,11.51
2022-10-23T23:46:49.815Z,11.44
2022-10-23T23:49:17.715Z,11.33
2022-10-23T23:51:46.940Z,11.30
2022-10-23T23:54:14.823Z,11.16
2022-10-23T23:56:42.695Z,11.13
2022-10-23T23:59:10.505Z,11.04
